sensor_id;sensor_type;location;lat;lon;timestamp;pressure;altitude;pressure_sealevel;temperature;humidity
47815;BME280;33579;50.058;18.130;2023-04-02T00:00:34;98174.84;;;10.68;100.00
47815;BME280;33579;50.058;18.130;2023-04-02T00:01:38;98181.41;;;10.72;100.00
47815;BME280;33579;50.058;18.130;2023-04-02T00:03:05;98178.13;;;10.70;100.00
47815;BME280;33579;50.058;18.130;2023-04-02T00:07:30;98181.22;;;10.65;100.00
47815;BME280;33579;50.058;18.130;2023-04-02T00:08:37;98176.78;;;10.58;100.00
47815;BME280;33579;50.058;18.130;2023-04-02T00:09:40;98177.44;;;10.51;100.00
47815;BME280;33579;50.058;18.130;2023-04-02T00:10:59;98172.31;;;10.50;100.00
47815;BME280;33579;50.058;18.130;2023-04-02T00:12:17;98177.38;;;10.43;100.00
47815;BME280;33579;50.058;18.130;2023-04-02T00:13:38;98180.31;;;10.40;100.00
47815;BME280;33579;50.058;18.130;2023-04-02T00:14:45;98186.50;;;10.31;100.00
47815;BME280;33579;50.058;18.130;2023-04-02T00:15:49;98185.84;;;10.29;100.00
47815;BME280;33579;50.058;18.130;2023-04-02T00:16:53;98185.78;;;10.20;100.00
47815;BME280;33579;50.058;18.130;2023-04-02T00:17:56;98189.06;;;10.22;100.00
47815;BME280;33579;50.058;18.130;2023-04-02T00:19:03;98193.84;;;10.19;100.00
47815;BME280;33579;50.058;18.130;2023-04-02T00:20:06;98186.63;;;10.21;100.00
47815;BME280;33579;50.058;18.130;2023-04-02T00:21:22;98188.09;;;10.23;100.00
47815;BME280;33579;50.058;18.130;2023-04-02T00:22:28;98192.06;;;10.27;100.00
47815;BME280;33579;50.058;18.130;2023-04-02T00:23:30;98183.72;;;10.32;100.00
47815;BME280;33579;50.058;18.130;2023-04-02T00:24:32;98192.59;;;10.39;100.00
47815;BME280;33579;50.058;18.130;2023-04-02T00:25:36;98181.28;;;10.39;100.00
47815;BME280;33579;50.058;18.130;2023-04-02T00:26:42;98191.81;;;10.39;100.00
47815;BME280;33579;50.058;18.130;2023-04-02T00:27:44;98179.16;;;10.43;100.00
47815;BME280;33579;50.058;18.130;2023-04-02T00:28:45;98185.28;;;10.43;100.00
47815;BME280;33579;50.058;18.130;2023-04-02T00:29:49;98196.22;;;10.38;100.00
47815;BME280;33579;50.058;18.130;2023-04-02T00:30:52;98191.25;;;10.27;100.00
47815;BME280;33579;50.058;18.130;2023-04-02T00:31:57;98186.97;;;10.26;100.00
47815;BME280;33579;50.058;18.130;2023-04-02T00:32:59;98192.41;;;10.33;100.00
47815;BME280;33579;50.058;18.130;2023-04-02T00:34:02;98181.09;;;10.40;100.00
47815;BME280;33579;50.058;18.130;2023-04-02T00:35:11;98191.19;;;10.45;100.00
47815;BME280;33579;50.058;18.130;2023-04-02T00:36:13;98187.09;;;10.51;100.00
47815;BME280;33579;50.058;18.130;2023-04-02T00:37:21;98191.22;;;10.53;100.00
47815;BME280;33579;50.058;18.130;2023-04-02T00:38:29;98191.06;;;10.55;100.00
47815;BME280;33579;50.058;18.130;2023-04-02T00:39:37;98189.25;;;10.56;100.00
47815;BME280;33579;50.058;18.130;2023-04-02T00:40:41;98190.75;;;10.58;100.00
47815;BME280;33579;50.058;18.130;2023-04-02T00:41:43;98187.81;;;10.61;100.00
47815;BME280;33579;50.058;18.130;2023-04-02T00:42:47;98191.09;;;10.63;100.00
47815;BME280;33579;50.058;18.130;2023-04-02T00:43:50;98190.78;;;10.66;100.00
47815;BME280;33579;50.058;18.130;2023-04-02T00:44:52;98186.84;;;10.71;100.00
47815;BME280;33579;50.058;18.130;2023-04-02T00:45:57;98187.53;;;10.73;100.00
47815;BME280;33579;50.058;18.130;2023-04-02T00:47:23;98187.00;;;10.69;100.00
47815;BME280;33579;50.058;18.130;2023-04-02T00:48:36;98188.97;;;10.67;100.00
47815;BME280;33579;50.058;18.130;2023-04-02T00:49:40;98189.97;;;10.66;100.00
47815;BME280;33579;50.058;18.130;2023-04-02T00:50:43;98193.25;;;10.68;100.00
47815;BME280;33579;50.058;18.130;2023-04-02T00:52:53;98182.06;;;10.66;100.00
47815;BME280;33579;50.058;18.130;2023-04-02T00:54:00;98187.16;;;10.67;100.00
47815;BME280;33579;50.058;18.130;2023-04-02T00:55:40;98185.38;;;10.68;100.00
47815;BME280;33579;50.058;18.130;2023-04-02T00:56:41;98189.31;;;10.72;100.00
47815;BME280;33579;50.058;18.130;2023-04-02T00:57:44;98190.00;;;10.74;100.00
47815;BME280;33579;50.058;18.130;2023-04-02T00:58:51;98193.94;;;10.78;100.00
47815;BME280;33579;50.058;18.130;2023-04-02T01:00:18;98192.13;;;10.79;100.00
47815;BME280;33579;50.058;18.130;2023-04-02T01:01:34;98190.84;;;10.83;100.00
47815;BME280;33579;50.058;18.130;2023-04-02T01:02:36;98196.75;;;10.85;100.00
47815;BME280;33579;50.058;18.130;2023-04-02T01:03:38;98196.25;;;10.81;100.00
47815;BME280;33579;50.058;18.130;2023-04-02T01:04:41;98191.97;;;10.80;100.00
47815;BME280;33579;50.058;18.130;2023-04-02T01:05:44;98196.59;;;10.78;100.00
47815;BME280;33579;50.058;18.130;2023-04-02T01:06:47;98194.75;;;10.79;100.00
47815;BME280;33579;50.058;18.130;2023-04-02T01:09:30;98194.59;;;10.80;100.00
47815;BME280;33579;50.058;18.130;2023-04-02T01:15:39;98199.25;;;10.87;100.00
47815;BME280;33579;50.058;18.130;2023-04-02T01:16:57;98200.91;;;10.88;100.00
47815;BME280;33579;50.058;18.130;2023-04-02T01:18:13;98203.16;;;10.82;100.00
47815;BME280;33579;50.058;18.130;2023-04-02T01:23:37;98201.88;;;10.87;100.00
47815;BME280;33579;50.058;18.130;2023-04-02T01:24:40;98192.63;;;10.82;100.00
47815;BME280;33579;50.058;18.130;2023-04-02T01:25:46;98204.00;;;10.83;100.00
47815;BME280;33579;50.058;18.130;2023-04-02T01:29:15;98200.84;;;10.79;100.00
47815;BME280;33579;50.058;18.130;2023-04-02T01:30:19;98197.91;;;10.74;100.00
47815;BME280;33579;50.058;18.130;2023-04-02T01:31:22;98205.09;;;10.72;100.00
47815;BME280;33579;50.058;18.130;2023-04-02T01:32:27;98194.75;;;10.71;100.00
47815;BME280;33579;50.058;18.130;2023-04-02T01:33:32;98203.16;;;10.74;100.00
47815;BME280;33579;50.058;18.130;2023-04-02T01:34:34;98207.44;;;10.75;100.00
47815;BME280;33579;50.058;18.130;2023-04-02T01:35:38;98212.69;;;10.75;100.00
47815;BME280;33579;50.058;18.130;2023-04-02T01:36:53;98205.94;;;10.73;100.00
47815;BME280;33579;50.058;18.130;2023-04-02T01:38:19;98209.56;;;10.72;100.00
47815;BME280;33579;50.058;18.130;2023-04-02T01:40:44;98209.06;;;10.76;100.00
47815;BME280;33579;50.058;18.130;2023-04-02T01:43:57;98208.88;;;10.70;100.00
47815;BME280;33579;50.058;18.130;2023-04-02T01:45:20;98206.41;;;10.68;100.00
47815;BME280;33579;50.058;18.130;2023-04-02T01:47:28;98210.34;;;10.72;100.00
47815;BME280;33579;50.058;18.130;2023-04-02T01:48:30;98204.94;;;10.74;100.00
47815;BME280;33579;50.058;18.130;2023-04-02T01:49:32;98216.13;;;10.76;100.00
47815;BME280;33579;50.058;18.130;2023-04-02T01:50:36;98212.69;;;10.75;100.00
47815;BME280;33579;50.058;18.130;2023-04-02T01:51:42;98213.19;;;10.79;100.00
47815;BME280;33579;50.058;18.130;2023-04-02T01:52:49;98216.50;;;10.81;100.00
47815;BME280;33579;50.058;18.130;2023-04-02T01:53:52;98219.13;;;10.81;100.00
47815;BME280;33579;50.058;18.130;2023-04-02T01:54:55;98215.66;;;10.80;100.00
47815;BME280;33579;50.058;18.130;2023-04-02T01:55:59;98221.91;;;10.79;100.00
47815;BME280;33579;50.058;18.130;2023-04-02T01:57:02;98214.34;;;10.76;100.00
47815;BME280;33579;50.058;18.130;2023-04-02T01:58:05;98218.44;;;10.79;100.00
47815;BME280;33579;50.058;18.130;2023-04-02T01:59:09;98214.81;;;10.80;100.00
47815;BME280;33579;50.058;18.130;2023-04-02T02:00:14;98228.66;;;10.82;100.00
47815;BME280;33579;50.058;18.130;2023-04-02T02:01:24;98231.28;;;10.82;100.00
47815;BME280;33579;50.058;18.130;2023-04-02T02:02:28;98220.78;;;10.82;100.00
47815;BME280;33579;50.058;18.130;2023-04-02T02:03:30;98219.78;;;10.83;100.00
47815;BME280;33579;50.058;18.130;2023-04-02T02:04:33;98218.28;;;10.80;100.00
47815;BME280;33579;50.058;18.130;2023-04-02T02:05:35;98225.19;;;10.81;100.00
47815;BME280;33579;50.058;18.130;2023-04-02T02:06:38;98226.69;;;10.84;100.00
47815;BME280;33579;50.058;18.130;2023-04-02T02:07:40;98229.97;;;10.86;100.00
47815;BME280;33579;50.058;18.130;2023-04-02T02:08:53;98226.38;;;10.87;100.00
47815;BME280;33579;50.058;18.130;2023-04-02T02:09:56;98235.56;;;10.83;100.00
47815;BME280;33579;50.058;18.130;2023-04-02T02:10:58;98225.72;;;10.85;100.00
47815;BME280;33579;50.058;18.130;2023-04-02T02:12:01;98229.00;;;10.87;100.00
47815;BME280;33579;50.058;18.130;2023-04-02T02:13:03;98236.56;;;10.82;100.00
47815;BME280;33579;50.058;18.130;2023-04-02T02:14:13;98236.38;;;10.83;100.00
47815;BME280;33579;50.058;18.130;2023-04-02T02:15:18;98231.78;;;10.86;100.00
47815;BME280;33579;50.058;18.130;2023-04-02T02:16:21;98233.44;;;10.87;100.00
47815;BME280;33579;50.058;18.130;2023-04-02T02:17:28;98228.00;;;10.88;100.00
47815;BME280;33579;50.058;18.130;2023-04-02T02:18:31;98237.41;;;10.91;100.00
47815;BME280;33579;50.058;18.130;2023-04-02T02:19:37;98237.22;;;10.92;100.00
47815;BME280;33579;50.058;18.130;2023-04-02T02:20:39;98231.16;;;10.92;100.00
47815;BME280;33579;50.058;18.130;2023-04-02T02:21:44;98232.47;;;10.96;100.00
47815;BME280;33579;50.058;18.130;2023-04-02T02:22:49;98229.19;;;10.94;100.00
47815;BME280;33579;50.058;18.130;2023-04-02T02:23:51;98241.22;;;10.96;100.00
47815;BME280;33579;50.058;18.130;2023-04-02T02:24:56;98234.13;;;10.97;100.00
47815;BME280;33579;50.058;18.130;2023-04-02T02:25:58;98239.72;;;10.94;100.00
47815;BME280;33579;50.058;18.130;2023-04-02T02:28:28;98235.28;;;10.94;100.00
47815;BME280;33579;50.058;18.130;2023-04-02T02:29:34;98237.06;;;10.94;100.00
47815;BME280;33579;50.058;18.130;2023-04-02T02:30:53;98234.31;;;10.95;100.00
47815;BME280;33579;50.058;18.130;2023-04-02T02:31:57;98237.22;;;10.92;100.00
47815;BME280;33579;50.058;18.130;2023-04-02T02:33:07;98238.22;;;10.91;100.00
47815;BME280;33579;50.058;18.130;2023-04-02T02:34:17;98235.28;;;10.94;100.00
47815;BME280;33579;50.058;18.130;2023-04-02T02:36:52;98234.59;;;10.92;100.00
47815;BME280;33579;50.058;18.130;2023-04-02T02:37:56;98231.81;;;10.94;100.00
47815;BME280;33579;50.058;18.130;2023-04-02T02:39:41;98240.56;;;10.94;100.00
47815;BME280;33579;50.058;18.130;2023-04-02T02:40:46;98243.19;;;10.94;100.00
47815;BME280;33579;50.058;18.130;2023-04-02T02:42:57;98239.38;;;10.97;100.00
47815;BME280;33579;50.058;18.130;2023-04-02T02:44:03;98238.56;;;10.96;100.00
47815;BME280;33579;50.058;18.130;2023-04-02T02:45:14;98238.56;;;10.96;100.00
47815;BME280;33579;50.058;18.130;2023-04-02T02:46:19;98241.53;;;10.93;100.00
47815;BME280;33579;50.058;18.130;2023-04-02T02:47:25;98242.16;;;10.87;100.00
47815;BME280;33579;50.058;18.130;2023-04-02T02:48:35;98239.19;;;10.82;100.00
47815;BME280;33579;50.058;18.130;2023-04-02T02:49:44;98246.75;;;10.85;100.00
47815;BME280;33579;50.058;18.130;2023-04-02T02:50:48;98245.78;;;10.86;100.00
47815;BME280;33579;50.058;18.130;2023-04-02T02:52:12;98239.47;;;10.79;100.00
47815;BME280;33579;50.058;18.130;2023-04-02T02:53:23;98243.69;;;10.63;100.00
47815;BME280;33579;50.058;18.130;2023-04-02T02:54:29;98247.00;;;10.65;100.00
47815;BME280;33579;50.058;18.130;2023-04-02T02:55:34;98248.34;;;10.70;100.00
47815;BME280;33579;50.058;18.130;2023-04-02T02:56:51;98249.53;;;10.75;100.00
47815;BME280;33579;50.058;18.130;2023-04-02T02:57:57;98247.38;;;10.79;100.00
47815;BME280;33579;50.058;18.130;2023-04-02T02:59:07;98244.44;;;10.82;100.00
47815;BME280;33579;50.058;18.130;2023-04-02T03:00:14;98247.88;;;10.82;100.00
47815;BME280;33579;50.058;18.130;2023-04-02T03:01:16;98252.03;;;10.85;100.00
47815;BME280;33579;50.058;18.130;2023-04-02T03:02:18;98247.09;;;10.82;100.00
47815;BME280;33579;50.058;18.130;2023-04-02T03:03:23;98250.38;;;10.84;100.00
47815;BME280;33579;50.058;18.130;2023-04-02T03:04:30;98253.28;;;10.73;100.00
47815;BME280;33579;50.058;18.130;2023-04-02T03:05:34;98258.56;;;10.73;100.00
47815;BME280;33579;50.058;18.130;2023-04-02T03:06:42;98258.75;;;10.79;100.00
47815;BME280;33579;50.058;18.130;2023-04-02T03:07:50;98257.44;;;10.83;100.00
47815;BME280;33579;50.058;18.130;2023-04-02T03:09:02;98260.25;;;10.82;100.00
47815;BME280;33579;50.058;18.130;2023-04-02T03:10:37;98248.41;;;10.86;100.00
47815;BME280;33579;50.058;18.130;2023-04-02T03:11:59;98254.50;;;10.87;100.00
47815;BME280;33579;50.058;18.130;2023-04-02T03:13:37;98256.97;;;10.88;100.00
47815;BME280;33579;50.058;18.130;2023-04-02T03:15:10;98257.78;;;10.89;100.00
47815;BME280;33579;50.058;18.130;2023-04-02T03:17:56;98264.78;;;10.72;100.00
47815;BME280;33579;50.058;18.130;2023-04-02T03:20:38;98271.00;;;10.62;100.00
47815;BME280;33579;50.058;18.130;2023-04-02T03:21:50;98274.75;;;10.60;100.00
47815;BME280;33579;50.058;18.130;2023-04-02T03:23:05;98273.09;;;10.59;100.00
47815;BME280;33579;50.058;18.130;2023-04-02T03:24:29;98276.09;;;10.64;100.00
47815;BME280;33579;50.058;18.130;2023-04-02T03:25:41;98276.78;;;10.66;100.00
47815;BME280;33579;50.058;18.130;2023-04-02T03:27:20;98281.72;;;10.69;100.00
47815;BME280;33579;50.058;18.130;2023-04-02T03:28:30;98283.69;;;10.67;100.00
47815;BME280;33579;50.058;18.130;2023-04-02T03:29:35;98283.34;;;10.70;100.00
47815;BME280;33579;50.058;18.130;2023-04-02T03:31:53;98283.16;;;10.63;100.00
47815;BME280;33579;50.058;18.130;2023-04-02T03:33:01;98280.84;;;10.60;100.00
47815;BME280;33579;50.058;18.130;2023-04-02T03:34:12;98291.38;;;10.60;100.00
47815;BME280;33579;50.058;18.130;2023-04-02T03:35:17;98297.25;;;10.54;100.00
47815;BME280;33579;50.058;18.130;2023-04-02T03:37:59;98294.47;;;10.56;100.00
47815;BME280;33579;50.058;18.130;2023-04-02T03:39:22;98290.53;;;10.60;100.00
47815;BME280;33579;50.058;18.130;2023-04-02T03:40:31;98299.13;;;10.62;100.00
47815;BME280;33579;50.058;18.130;2023-04-02T03:41:54;98299.59;;;10.65;100.00
47815;BME280;33579;50.058;18.130;2023-04-02T03:43:03;98290.72;;;10.66;100.00
47815;BME280;33579;50.058;18.130;2023-04-02T03:44:18;98293.22;;;10.68;100.00
47815;BME280;33579;50.058;18.130;2023-04-02T03:45:23;98298.47;;;10.68;100.00
47815;BME280;33579;50.058;18.130;2023-04-02T03:46:49;98305.38;;;10.69;100.00
47815;BME280;33579;50.058;18.130;2023-04-02T03:47:57;98299.00;;;10.72;100.00
47815;BME280;33579;50.058;18.130;2023-04-02T03:49:28;98300.50;;;10.74;100.00
47815;BME280;33579;50.058;18.130;2023-04-02T03:50:35;98302.44;;;10.72;100.00
47815;BME280;33579;50.058;18.130;2023-04-02T03:52:32;98296.50;;;10.70;100.00
47815;BME280;33579;50.058;18.130;2023-04-02T03:53:11;98299.66;;;10.74;100.00
47815;BME280;33579;50.058;18.130;2023-04-02T03:54:14;98301.16;;;10.76;100.00
47815;BME280;33579;50.058;18.130;2023-04-02T03:55:21;98299.97;;;10.71;100.00
47815;BME280;33579;50.058;18.130;2023-04-02T03:56:31;98298.63;;;10.66;100.00
47815;BME280;33579;50.058;18.130;2023-04-02T03:57:43;98307.94;;;10.52;100.00
47815;BME280;33579;50.058;18.130;2023-04-02T03:58:54;98310.94;;;10.39;100.00
47815;BME280;33579;50.058;18.130;2023-04-02T04:00:09;98305.47;;;10.33;100.00
47815;BME280;33579;50.058;18.130;2023-04-02T04:01:21;98308.31;;;10.13;100.00
47815;BME280;33579;50.058;18.130;2023-04-02T04:02:55;98312.97;;;10.01;100.00
47815;BME280;33579;50.058;18.130;2023-04-02T04:04:06;98306.88;;;10.01;100.00
47815;BME280;33579;50.058;18.130;2023-04-02T04:05:31;98318.53;;;9.98;100.00
47815;BME280;33579;50.058;18.130;2023-04-02T04:06:40;98316.88;;;9.97;100.00
47815;BME280;33579;50.058;18.130;2023-04-02T04:07:43;98317.78;;;9.88;100.00
47815;BME280;33579;50.058;18.130;2023-04-02T04:09:05;98315.28;;;9.86;100.00
47815;BME280;33579;50.058;18.130;2023-04-02T04:10:16;98314.25;;;9.79;100.00
47815;BME280;33579;50.058;18.130;2023-04-02T04:11:25;98315.69;;;9.73;100.00
47815;BME280;33579;50.058;18.130;2023-04-02T04:12:39;98320.94;;;9.73;100.00
47815;BME280;33579;50.058;18.130;2023-04-02T04:15:37;98328.94;;;9.72;100.00
47815;BME280;33579;50.058;18.130;2023-04-02T04:16:46;98332.56;;;9.70;100.00
47815;BME280;33579;50.058;18.130;2023-04-02T04:17:52;98333.31;;;9.63;100.00
47815;BME280;33579;50.058;18.130;2023-04-02T04:20:20;98337.03;;;9.60;100.00
47815;BME280;33579;50.058;18.130;2023-04-02T04:21:26;98342.16;;;9.62;100.00
47815;BME280;33579;50.058;18.130;2023-04-02T04:22:29;98336.22;;;9.60;100.00
47815;BME280;33579;50.058;18.130;2023-04-02T04:23:38;98344.38;;;9.56;100.00
47815;BME280;33579;50.058;18.130;2023-04-02T04:24:46;98348.38;;;9.61;100.00
47815;BME280;33579;50.058;18.130;2023-04-02T04:25:57;98351.31;;;9.58;100.00
47815;BME280;33579;50.058;18.130;2023-04-02T04:27:07;98344.31;;;9.48;100.00
47815;BME280;33579;50.058;18.130;2023-04-02T04:28:35;98346.72;;;9.41;100.00
47815;BME280;33579;50.058;18.130;2023-04-02T04:29:56;98352.09;;;9.40;100.00
47815;BME280;33579;50.058;18.130;2023-04-02T04:31:07;98348.69;;;9.30;100.00
47815;BME280;33579;50.058;18.130;2023-04-02T04:33:25;98349.97;;;9.25;100.00
47815;BME280;33579;50.058;18.130;2023-04-02T04:34:39;98360.34;;;9.27;100.00
47815;BME280;33579;50.058;18.130;2023-04-02T04:36:01;98365.06;;;9.13;100.00
47815;BME280;33579;50.058;18.130;2023-04-02T04:37:19;98357.91;;;9.06;100.00
47815;BME280;33579;50.058;18.130;2023-04-02T04:38:33;98364.19;;;8.95;100.00
47815;BME280;33579;50.058;18.130;2023-04-02T04:39:54;98369.69;;;9.02;100.00
47815;BME280;33579;50.058;18.130;2023-04-02T04:41:01;98372.59;;;8.98;100.00
47815;BME280;33579;50.058;18.130;2023-04-02T04:42:06;98374.09;;;9.01;100.00
47815;BME280;33579;50.058;18.130;2023-04-02T04:43:17;98378.53;;;9.00;100.00
47815;BME280;33579;50.058;18.130;2023-04-02T04:44:44;98377.31;;;8.95;100.00
47815;BME280;33579;50.058;18.130;2023-04-02T04:45:54;98381.31;;;8.89;100.00
47815;BME280;33579;50.058;18.130;2023-04-02T04:47:02;98387.00;;;8.84;100.00
47815;BME280;33579;50.058;18.130;2023-04-02T04:49:20;98380.44;;;8.70;100.00
47815;BME280;33579;50.058;18.130;2023-04-02T04:50:39;98393.25;;;8.74;100.00
47815;BME280;33579;50.058;18.130;2023-04-02T04:51:54;98402.78;;;8.65;100.00
47815;BME280;33579;50.058;18.130;2023-04-02T04:53:04;98400.72;;;8.58;100.00
47815;BME280;33579;50.058;18.130;2023-04-02T04:54:14;98405.13;;;8.58;100.00
47815;BME280;33579;50.058;18.130;2023-04-02T04:55:36;98405.81;;;8.40;100.00
47815;BME280;33579;50.058;18.130;2023-04-02T04:56:39;98410.94;;;8.42;100.00
47815;BME280;33579;50.058;18.130;2023-04-02T04:57:47;98415.75;;;8.37;100.00
47815;BME280;33579;50.058;18.130;2023-04-02T04:59:00;98415.50;;;8.40;100.00
47815;BME280;33579;50.058;18.130;2023-04-02T05:00:11;98422.91;;;8.35;100.00
47815;BME280;33579;50.058;18.130;2023-04-02T05:01:26;98430.38;;;8.29;100.00
47815;BME280;33579;50.058;18.130;2023-04-02T05:02:34;98435.06;;;8.26;100.00
47815;BME280;33579;50.058;18.130;2023-04-02T05:03:47;98429.00;;;8.15;100.00
47815;BME280;33579;50.058;18.130;2023-04-02T05:04:53;98429.22;;;7.83;100.00
47815;BME280;33579;50.058;18.130;2023-04-02T05:06:15;98435.66;;;7.69;100.00
47815;BME280;33579;50.058;18.130;2023-04-02T05:07:35;98433.44;;;7.64;100.00
47815;BME280;33579;50.058;18.130;2023-04-02T05:08:46;98442.84;;;7.67;100.00
47815;BME280;33579;50.058;18.130;2023-04-02T05:10:03;98447.41;;;7.34;100.00
47815;BME280;33579;50.058;18.130;2023-04-02T05:11:20;98450.59;;;7.06;100.00
47815;BME280;33579;50.058;18.130;2023-04-02T05:12:35;98447.00;;;7.07;100.00
47815;BME280;33579;50.058;18.130;2023-04-02T05:13:57;98462.88;;;7.15;100.00
47815;BME280;33579;50.058;18.130;2023-04-02T05:15:28;98468.06;;;7.06;100.00
47815;BME280;33579;50.058;18.130;2023-04-02T05:18:26;98471.91;;;7.01;100.00
47815;BME280;33579;50.058;18.130;2023-04-02T05:19:38;98473.56;;;6.81;100.00
47815;BME280;33579;50.058;18.130;2023-04-02T05:21:57;98483.44;;;6.78;100.00
47815;BME280;33579;50.058;18.130;2023-04-02T05:23:20;98489.25;;;6.81;100.00
47815;BME280;33579;50.058;18.130;2023-04-02T05:27:15;98507.94;;;6.98;100.00
47815;BME280;33579;50.058;18.130;2023-04-02T05:28:31;98505.97;;;6.90;100.00
47815;BME280;33579;50.058;18.130;2023-04-02T05:29:37;98509.72;;;6.97;100.00
47815;BME280;33579;50.058;18.130;2023-04-02T05:30:52;98506.34;;;6.85;100.00
47815;BME280;33579;50.058;18.130;2023-04-02T05:32:03;98506.59;;;6.82;100.00
47815;BME280;33579;50.058;18.130;2023-04-02T05:33:25;98505.38;;;6.86;100.00
47815;BME280;33579;50.058;18.130;2023-04-02T05:34:36;98515.19;;;6.73;100.00
47815;BME280;33579;50.058;18.130;2023-04-02T05:35:42;98503.13;;;6.82;100.00
47815;BME280;33579;50.058;18.130;2023-04-02T05:36:45;98513.47;;;6.83;100.00
47815;BME280;33579;50.058;18.130;2023-04-02T05:37:48;98516.78;;;6.85;100.00
47815;BME280;33579;50.058;18.130;2023-04-02T05:38:52;98513.81;;;6.90;100.00
47815;BME280;33579;50.058;18.130;2023-04-02T05:40:20;98517.22;;;6.69;100.00
47815;BME280;33579;50.058;18.130;2023-04-02T05:41:27;98519.47;;;6.74;100.00
47815;BME280;33579;50.058;18.130;2023-04-02T05:42:34;98528.38;;;6.71;100.00
47815;BME280;33579;50.058;18.130;2023-04-02T05:43:46;98538.94;;;6.49;100.00
47815;BME280;33579;50.058;18.130;2023-04-02T05:46:18;98533.50;;;6.40;100.00
47815;BME280;33579;50.058;18.130;2023-04-02T05:47:28;98545.81;;;6.50;100.00
47815;BME280;33579;50.058;18.130;2023-04-02T05:48:35;98544.16;;;6.49;100.00
47815;BME280;33579;50.058;18.130;2023-04-02T05:50:46;98539.78;;;6.38;100.00
47815;BME280;33579;50.058;18.130;2023-04-02T05:51:57;98551.41;;;6.45;100.00
47815;BME280;33579;50.058;18.130;2023-04-02T05:53:30;98549.25;;;6.50;100.00
47815;BME280;33579;50.058;18.130;2023-04-02T05:54:37;98552.44;;;6.54;100.00
47815;BME280;33579;50.058;18.130;2023-04-02T05:55:41;98551.38;;;6.56;100.00
47815;BME280;33579;50.058;18.130;2023-04-02T05:56:47;98546.84;;;6.58;100.00
47815;BME280;33579;50.058;18.130;2023-04-02T05:57:54;98559.97;;;6.47;100.00
47815;BME280;33579;50.058;18.130;2023-04-02T05:59:20;98553.19;;;6.44;100.00
47815;BME280;33579;50.058;18.130;2023-04-02T06:03:24;98564.41;;;6.24;100.00
47815;BME280;33579;50.058;18.130;2023-04-02T06:04:59;98562.59;;;6.36;100.00
47815;BME280;33579;50.058;18.130;2023-04-02T06:06:13;98573.97;;;6.46;100.00
47815;BME280;33579;50.058;18.130;2023-04-02T06:07:21;98576.84;;;6.43;100.00
47815;BME280;33579;50.058;18.130;2023-04-02T06:08:38;98572.19;;;6.35;100.00
47815;BME280;33579;50.058;18.130;2023-04-02T06:09:59;98578.72;;;6.41;100.00
47815;BME280;33579;50.058;18.130;2023-04-02T06:12:18;98580.94;;;6.57;100.00
47815;BME280;33579;50.058;18.130;2023-04-02T06:13:23;98580.59;;;6.61;100.00
47815;BME280;33579;50.058;18.130;2023-04-02T06:14:25;98582.38;;;6.61;100.00
47815;BME280;33579;50.058;18.130;2023-04-02T06:15:29;98591.75;;;6.64;100.00
47815;BME280;33579;50.058;18.130;2023-04-02T06:16:37;98588.91;;;6.67;100.00
47815;BME280;33579;50.058;18.130;2023-04-02T06:18:55;98603.38;;;6.71;100.00
47815;BME280;33579;50.058;18.130;2023-04-02T06:19:58;98594.00;;;6.68;100.00
47815;BME280;33579;50.058;18.130;2023-04-02T06:21:03;98603.03;;;6.64;100.00
47815;BME280;33579;50.058;18.130;2023-04-02T06:23:52;98612.34;;;6.45;100.00
47815;BME280;33579;50.058;18.130;2023-04-02T06:25:01;98611.06;;;6.28;100.00
47815;BME280;33579;50.058;18.130;2023-04-02T06:26:32;98624.94;;;6.29;100.00
47815;BME280;33579;50.058;18.130;2023-04-02T06:27:36;98624.25;;;6.27;100.00
47815;BME280;33579;50.058;18.130;2023-04-02T06:28:46;98624.50;;;6.24;100.00
47815;BME280;33579;50.058;18.130;2023-04-02T06:29:52;98624.50;;;6.24;100.00
47815;BME280;33579;50.058;18.130;2023-04-02T06:31:00;98631.94;;;6.28;100.00
47815;BME280;33579;50.058;18.130;2023-04-02T06:32:11;98640.03;;;6.25;100.00
47815;BME280;33579;50.058;18.130;2023-04-02T06:33:16;98635.88;;;6.23;100.00
47815;BME280;33579;50.058;18.130;2023-04-02T06:34:21;98643.84;;;6.21;100.00
47815;BME280;33579;50.058;18.130;2023-04-02T06:35:44;98647.66;;;6.06;100.00
47815;BME280;33579;50.058;18.130;2023-04-02T06:36:50;98643.25;;;6.06;100.00
47815;BME280;33579;50.058;18.130;2023-04-02T06:38:00;98655.31;;;5.96;100.00
47815;BME280;33579;50.058;18.130;2023-04-02T06:39:07;98650.94;;;5.96;100.00
47815;BME280;33579;50.058;18.130;2023-04-02T06:41:45;98664.00;;;5.96;100.00
47815;BME280;33579;50.058;18.130;2023-04-02T06:43:27;98661.63;;;5.93;100.00
47815;BME280;33579;50.058;18.130;2023-04-02T06:44:37;98657.09;;;5.95;100.00
47815;BME280;33579;50.058;18.130;2023-04-02T06:46:13;98664.69;;;5.98;100.00
47815;BME280;33579;50.058;18.130;2023-04-02T06:47:43;98665.41;;;6.00;100.00
47815;BME280;33579;50.058;18.130;2023-04-02T06:49:01;98664.59;;;6.00;100.00
47815;BME280;33579;50.058;18.130;2023-04-02T06:50:13;98665.34;;;6.02;100.00
47815;BME280;33579;50.058;18.130;2023-04-02T06:51:17;98673.25;;;6.00;100.00
47815;BME280;33579;50.058;18.130;2023-04-02T06:52:50;98672.75;;;5.84;100.00
47815;BME280;33579;50.058;18.130;2023-04-02T06:53:52;98680.25;;;5.88;100.00
47815;BME280;33579;50.058;18.130;2023-04-02T06:54:54;98684.72;;;5.86;100.00
47815;BME280;33579;50.058;18.130;2023-04-02T06:57:28;98689.50;;;5.93;100.00
47815;BME280;33579;50.058;18.130;2023-04-02T06:58:31;98694.25;;;5.87;100.00
47815;BME280;33579;50.058;18.130;2023-04-02T06:59:33;98689.13;;;5.86;100.00